sensor_id;sensor_type;location;lat;lon;timestamp;P1;durP1;ratioP1;P2;durP2;ratioP2
12267;SDS011;6196;48.398;11.736;2024-02-14T00:00:53;9.30;;;5.10;;
12267;SDS011;6196;48.398;11.736;2024-02-14T00:03:21;6.87;;;5.23;;
12267;SDS011;6196;48.398;11.736;2024-02-14T00:05:50;7.83;;;4.97;;
12267;SDS011;6196;48.398;11.736;2024-02-14T00:08:18;6.17;;;3.80;;
12267;SDS011;6196;48.398;11.736;2024-02-14T00:10:47;6.57;;;3.67;;
12267;SDS011;6196;48.398;11.736;2024-02-14T00:13:14;4.93;;;3.67;;
12267;SDS011;6196;48.398;11.736;2024-02-14T00:15:44;4.63;;;3.67;;
12267;SDS011;6196;48.398;11.736;2024-02-14T00:18:12;4.97;;;4.00;;
12267;SDS011;6196;48.398;11.736;2024-02-14T00:20:41;6.07;;;3.87;;
12267;SDS011;6196;48.398;11.736;2024-02-14T00:23:08;5.10;;;3.90;;
12267;SDS011;6196;48.398;11.736;2024-02-14T00:25:35;7.13;;;4.13;;
12267;SDS011;6196;48.398;11.736;2024-02-14T00:28:02;6.43;;;4.53;;
12267;SDS011;6196;48.398;11.736;2024-02-14T00:30:30;6.10;;;4.17;;
12267;SDS011;6196;48.398;11.736;2024-02-14T00:32:56;6.60;;;4.67;;
12267;SDS011;6196;48.398;11.736;2024-02-14T00:35:24;6.07;;;4.37;;
12267;SDS011;6196;48.398;11.736;2024-02-14T00:37:51;4.90;;;3.60;;
12267;SDS011;6196;48.398;11.736;2024-02-14T00:40:18;5.07;;;4.03;;
12267;SDS011;6196;48.398;11.736;2024-02-14T00:42:45;5.33;;;4.33;;
12267;SDS011;6196;48.398;11.736;2024-02-14T00:45:12;5.00;;;3.97;;
12267;SDS011;6196;48.398;11.736;2024-02-14T00:47:39;6.73;;;3.93;;
12267;SDS011;6196;48.398;11.736;2024-02-14T00:50:07;6.63;;;3.70;;
12267;SDS011;6196;48.398;11.736;2024-02-14T00:52:34;4.97;;;3.67;;
12267;SDS011;6196;48.398;11.736;2024-02-14T00:55:01;4.80;;;4.10;;
12267;SDS011;6196;48.398;11.736;2024-02-14T00:57:31;7.77;;;4.30;;
12267;SDS011;6196;48.398;11.736;2024-02-14T00:59:58;6.17;;;4.23;;
12267;SDS011;6196;48.398;11.736;2024-02-14T01:02:26;6.20;;;4.07;;
12267;SDS011;6196;48.398;11.736;2024-02-14T01:04:53;5.77;;;4.50;;
12267;SDS011;6196;48.398;11.736;2024-02-14T01:07:20;4.93;;;3.80;;
12267;SDS011;6196;48.398;11.736;2024-02-14T01:09:47;7.60;;;4.67;;
12267;SDS011;6196;48.398;11.736;2024-02-14T01:12:14;9.43;;;4.87;;
12267;SDS011;6196;48.398;11.736;2024-02-14T01:14:42;7.77;;;4.40;;
12267;SDS011;6196;48.398;11.736;2024-02-14T01:17:09;7.13;;;4.67;;
12267;SDS011;6196;48.398;11.736;2024-02-14T01:19:37;6.70;;;4.70;;
12267;SDS011;6196;48.398;11.736;2024-02-14T01:22:04;10.27;;;4.90;;
12267;SDS011;6196;48.398;11.736;2024-02-14T01:24:31;8.87;;;5.03;;
12267;SDS011;6196;48.398;11.736;2024-02-14T01:26:58;7.60;;;4.40;;
12267;SDS011;6196;48.398;11.736;2024-02-14T01:29:25;8.60;;;4.47;;
12267;SDS011;6196;48.398;11.736;2024-02-14T01:31:53;6.43;;;3.87;;
12267;SDS011;6196;48.398;11.736;2024-02-14T01:34:21;8.20;;;4.50;;
12267;SDS011;6196;48.398;11.736;2024-02-14T01:36:48;8.37;;;4.80;;
12267;SDS011;6196;48.398;11.736;2024-02-14T01:39:15;7.40;;;5.20;;
12267;SDS011;6196;48.398;11.736;2024-02-14T01:41:44;9.47;;;5.57;;
12267;SDS011;6196;48.398;11.736;2024-02-14T01:44:12;6.10;;;4.80;;
12267;SDS011;6196;48.398;11.736;2024-02-14T01:46:39;6.10;;;4.40;;
12267;SDS011;6196;48.398;11.736;2024-02-14T01:49:06;6.47;;;4.70;;
12267;SDS011;6196;48.398;11.736;2024-02-14T01:51:34;7.00;;;4.13;;
12267;SDS011;6196;48.398;11.736;2024-02-14T01:54:02;6.43;;;4.70;;
12267;SDS011;6196;48.398;11.736;2024-02-14T01:56:30;7.63;;;4.63;;
12267;SDS011;6196;48.398;11.736;2024-02-14T01:58:58;6.73;;;4.23;;
12267;SDS011;6196;48.398;11.736;2024-02-14T02:01:26;5.43;;;4.30;;
12267;SDS011;6196;48.398;11.736;2024-02-14T02:03:53;7.23;;;5.00;;
12267;SDS011;6196;48.398;11.736;2024-02-14T02:06:21;5.53;;;4.50;;
12267;SDS011;6196;48.398;11.736;2024-02-14T02:08:48;9.50;;;4.63;;
12267;SDS011;6196;48.398;11.736;2024-02-14T02:11:15;6.77;;;4.23;;
12267;SDS011;6196;48.398;11.736;2024-02-14T02:13:42;5.43;;;4.67;;
12267;SDS011;6196;48.398;11.736;2024-02-14T02:16:09;7.10;;;4.40;;
12267;SDS011;6196;48.398;11.736;2024-02-14T02:18:38;6.70;;;5.03;;
12267;SDS011;6196;48.398;11.736;2024-02-14T02:21:05;7.97;;;4.67;;
12267;SDS011;6196;48.398;11.736;2024-02-14T02:23:33;7.37;;;5.23;;
12267;SDS011;6196;48.398;11.736;2024-02-14T02:26:02;7.30;;;5.10;;
12267;SDS011;6196;48.398;11.736;2024-02-14T02:28:29;9.20;;;5.47;;
12267;SDS011;6196;48.398;11.736;2024-02-14T02:30:55;8.63;;;4.80;;
12267;SDS011;6196;48.398;11.736;2024-02-14T02:33:22;6.00;;;4.60;;
12267;SDS011;6196;48.398;11.736;2024-02-14T02:35:50;8.50;;;5.27;;
12267;SDS011;6196;48.398;11.736;2024-02-14T02:38:17;7.53;;;4.97;;
12267;SDS011;6196;48.398;11.736;2024-02-14T02:40:46;6.17;;;5.00;;
12267;SDS011;6196;48.398;11.736;2024-02-14T02:43:12;7.90;;;4.57;;
12267;SDS011;6196;48.398;11.736;2024-02-14T02:45:39;5.67;;;4.93;;
12267;SDS011;6196;48.398;11.736;2024-02-14T02:48:06;6.37;;;4.63;;
12267;SDS011;6196;48.398;11.736;2024-02-14T02:50:34;7.40;;;4.83;;
12267;SDS011;6196;48.398;11.736;2024-02-14T02:53:01;6.63;;;5.00;;
12267;SDS011;6196;48.398;11.736;2024-02-14T02:55:28;6.80;;;4.80;;
12267;SDS011;6196;48.398;11.736;2024-02-14T02:57:54;6.43;;;5.20;;
12267;SDS011;6196;48.398;11.736;2024-02-14T03:00:22;5.63;;;4.50;;
12267;SDS011;6196;48.398;11.736;2024-02-14T03:02:49;7.83;;;5.17;;
12267;SDS011;6196;48.398;11.736;2024-02-14T03:05:16;7.13;;;5.07;;
12267;SDS011;6196;48.398;11.736;2024-02-14T03:07:46;6.20;;;5.27;;
12267;SDS011;6196;48.398;11.736;2024-02-14T03:10:14;4.87;;;4.37;;
12267;SDS011;6196;48.398;11.736;2024-02-14T03:12:47;5.83;;;4.77;;
12267;SDS011;6196;48.398;11.736;2024-02-14T03:15:15;8.30;;;4.60;;
12267;SDS011;6196;48.398;11.736;2024-02-14T03:17:44;5.73;;;4.60;;
12267;SDS011;6196;48.398;11.736;2024-02-14T03:20:12;6.90;;;4.23;;
12267;SDS011;6196;48.398;11.736;2024-02-14T03:22:43;7.87;;;5.10;;
12267;SDS011;6196;48.398;11.736;2024-02-14T03:25:16;6.47;;;4.63;;
12267;SDS011;6196;48.398;11.736;2024-02-14T03:27:44;8.53;;;5.10;;
12267;SDS011;6196;48.398;11.736;2024-02-14T03:30:17;7.27;;;5.10;;
12267;SDS011;6196;48.398;11.736;2024-02-14T03:32:46;6.50;;;4.63;;
12267;SDS011;6196;48.398;11.736;2024-02-14T03:35:13;10.10;;;4.47;;
12267;SDS011;6196;48.398;11.736;2024-02-14T03:37:41;6.13;;;4.40;;
12267;SDS011;6196;48.398;11.736;2024-02-14T03:40:10;9.10;;;5.00;;
12267;SDS011;6196;48.398;11.736;2024-02-14T03:42:38;6.37;;;4.40;;
12267;SDS011;6196;48.398;11.736;2024-02-14T03:45:06;6.97;;;4.90;;
12267;SDS011;6196;48.398;11.736;2024-02-14T03:47:34;6.67;;;4.37;;
12267;SDS011;6196;48.398;11.736;2024-02-14T03:50:02;6.83;;;4.20;;
12267;SDS011;6196;48.398;11.736;2024-02-14T03:52:30;7.40;;;4.67;;
12267;SDS011;6196;48.398;11.736;2024-02-14T03:55:01;5.33;;;4.10;;
12267;SDS011;6196;48.398;11.736;2024-02-14T03:57:29;7.27;;;4.67;;
12267;SDS011;6196;48.398;11.736;2024-02-14T03:59:57;5.67;;;4.23;;
12267;SDS011;6196;48.398;11.736;2024-02-14T04:02:29;5.37;;;3.80;;
12267;SDS011;6196;48.398;11.736;2024-02-14T04:04:58;5.97;;;4.50;;
12267;SDS011;6196;48.398;11.736;2024-02-14T04:07:25;5.77;;;3.80;;
12267;SDS011;6196;48.398;11.736;2024-02-14T04:09:52;6.97;;;4.40;;
12267;SDS011;6196;48.398;11.736;2024-02-14T04:12:20;6.23;;;4.50;;
12267;SDS011;6196;48.398;11.736;2024-02-14T04:14:47;7.80;;;4.70;;
12267;SDS011;6196;48.398;11.736;2024-02-14T04:17:14;4.90;;;3.80;;
12267;SDS011;6196;48.398;11.736;2024-02-14T04:19:41;5.10;;;4.33;;
12267;SDS011;6196;48.398;11.736;2024-02-14T04:22:08;6.70;;;4.27;;
12267;SDS011;6196;48.398;11.736;2024-02-14T04:24:35;6.90;;;4.10;;
12267;SDS011;6196;48.398;11.736;2024-02-14T04:27:03;6.87;;;4.33;;
12267;SDS011;6196;48.398;11.736;2024-02-14T04:29:31;6.40;;;4.63;;
12267;SDS011;6196;48.398;11.736;2024-02-14T04:32:00;6.13;;;4.70;;
12267;SDS011;6196;48.398;11.736;2024-02-14T04:34:28;4.57;;;3.97;;
12267;SDS011;6196;48.398;11.736;2024-02-14T04:36:56;6.07;;;4.40;;
12267;SDS011;6196;48.398;11.736;2024-02-14T04:39:24;6.50;;;4.13;;
12267;SDS011;6196;48.398;11.736;2024-02-14T04:41:50;5.67;;;4.10;;
12267;SDS011;6196;48.398;11.736;2024-02-14T04:44:27;7.57;;;4.70;;
12267;SDS011;6196;48.398;11.736;2024-02-14T04:46:55;6.57;;;4.27;;
12267;SDS011;6196;48.398;11.736;2024-02-14T04:49:25;7.23;;;4.00;;
12267;SDS011;6196;48.398;11.736;2024-02-14T04:51:53;6.90;;;4.63;;
12267;SDS011;6196;48.398;11.736;2024-02-14T04:54:21;5.20;;;4.43;;
12267;SDS011;6196;48.398;11.736;2024-02-14T04:56:48;8.43;;;4.50;;
12267;SDS011;6196;48.398;11.736;2024-02-14T04:59:20;7.83;;;4.70;;
12267;SDS011;6196;48.398;11.736;2024-02-14T05:01:47;5.53;;;4.03;;
12267;SDS011;6196;48.398;11.736;2024-02-14T05:04:14;4.30;;;3.90;;
12267;SDS011;6196;48.398;11.736;2024-02-14T05:06:43;5.20;;;3.70;;
12267;SDS011;6196;48.398;11.736;2024-02-14T05:09:10;6.20;;;4.33;;
12267;SDS011;6196;48.398;11.736;2024-02-14T05:11:37;5.23;;;3.87;;
12267;SDS011;6196;48.398;11.736;2024-02-14T05:14:04;6.73;;;3.80;;
12267;SDS011;6196;48.398;11.736;2024-02-14T05:16:31;4.37;;;3.40;;
12267;SDS011;6196;48.398;11.736;2024-02-14T05:18:58;4.43;;;3.40;;
12267;SDS011;6196;48.398;11.736;2024-02-14T05:21:25;4.13;;;3.47;;
12267;SDS011;6196;48.398;11.736;2024-02-14T05:23:53;4.73;;;3.27;;
12267;SDS011;6196;48.398;11.736;2024-02-14T05:26:20;4.57;;;3.33;;
12267;SDS011;6196;48.398;11.736;2024-02-14T05:28:47;3.93;;;3.10;;
12267;SDS011;6196;48.398;11.736;2024-02-14T05:31:15;5.73;;;3.90;;
12267;SDS011;6196;48.398;11.736;2024-02-14T05:33:42;4.17;;;3.77;;
12267;SDS011;6196;48.398;11.736;2024-02-14T05:36:10;5.67;;;4.00;;
12267;SDS011;6196;48.398;11.736;2024-02-14T05:38:37;6.20;;;3.93;;
12267;SDS011;6196;48.398;11.736;2024-02-14T05:41:04;4.97;;;4.10;;
12267;SDS011;6196;48.398;11.736;2024-02-14T05:43:30;7.37;;;4.97;;
12267;SDS011;6196;48.398;11.736;2024-02-14T05:45:57;7.03;;;4.10;;
12267;SDS011;6196;48.398;11.736;2024-02-14T05:48:24;5.87;;;4.33;;
12267;SDS011;6196;48.398;11.736;2024-02-14T05:50:53;6.60;;;3.83;;
12267;SDS011;6196;48.398;11.736;2024-02-14T05:53:20;5.13;;;4.10;;
12267;SDS011;6196;48.398;11.736;2024-02-14T05:55:47;5.20;;;4.23;;
12267;SDS011;6196;48.398;11.736;2024-02-14T05:58:14;7.37;;;4.23;;
12267;SDS011;6196;48.398;11.736;2024-02-14T06:00:41;4.53;;;3.50;;
12267;SDS011;6196;48.398;11.736;2024-02-14T06:03:08;6.00;;;4.40;;
12267;SDS011;6196;48.398;11.736;2024-02-14T06:05:37;7.00;;;4.20;;
12267;SDS011;6196;48.398;11.736;2024-02-14T06:08:04;6.70;;;4.37;;
12267;SDS011;6196;48.398;11.736;2024-02-14T06:10:31;5.50;;;4.03;;
12267;SDS011;6196;48.398;11.736;2024-02-14T06:13:00;6.37;;;3.80;;
12267;SDS011;6196;48.398;11.736;2024-02-14T06:15:27;4.77;;;3.60;;
12267;SDS011;6196;48.398;11.736;2024-02-14T06:17:54;5.83;;;3.50;;
12267;SDS011;6196;48.398;11.736;2024-02-14T06:20:21;4.93;;;3.70;;
12267;SDS011;6196;48.398;11.736;2024-02-14T06:22:49;5.80;;;4.10;;
12267;SDS011;6196;48.398;11.736;2024-02-14T06:25:29;5.00;;;4.50;;
12267;SDS011;6196;48.398;11.736;2024-02-14T06:27:56;5.40;;;4.50;;
12267;SDS011;6196;48.398;11.736;2024-02-14T06:30:23;5.07;;;4.10;;
12267;SDS011;6196;48.398;11.736;2024-02-14T06:32:55;5.10;;;4.27;;
12267;SDS011;6196;48.398;11.736;2024-02-14T06:35:27;5.13;;;4.17;;
12267;SDS011;6196;48.398;11.736;2024-02-14T06:37:55;7.13;;;4.20;;
12267;SDS011;6196;48.398;11.736;2024-02-14T06:40:30;6.57;;;3.97;;
12267;SDS011;6196;48.398;11.736;2024-02-14T06:42:57;6.80;;;4.00;;
12267;SDS011;6196;48.398;11.736;2024-02-14T06:45:26;5.80;;;4.50;;
12267;SDS011;6196;48.398;11.736;2024-02-14T06:47:56;6.20;;;4.10;;
12267;SDS011;6196;48.398;11.736;2024-02-14T06:50:23;6.17;;;3.70;;
12267;SDS011;6196;48.398;11.736;2024-02-14T06:52:54;4.50;;;2.83;;
12267;SDS011;6196;48.398;11.736;2024-02-14T06:55:26;4.43;;;2.97;;
12267;SDS011;6196;48.398;11.736;2024-02-14T06:57:53;3.27;;;2.60;;
12267;SDS011;6196;48.398;11.736;2024-02-14T07:00:20;4.80;;;3.30;;
12267;SDS011;6196;48.398;11.736;2024-02-14T07:02:48;7.57;;;4.03;;
12267;SDS011;6196;48.398;11.736;2024-02-14T07:05:15;5.63;;;3.97;;
12267;SDS011;6196;48.398;11.736;2024-02-14T07:07:42;6.20;;;4.10;;
12267;SDS011;6196;48.398;11.736;2024-02-14T07:10:09;6.67;;;4.07;;
12267;SDS011;6196;48.398;11.736;2024-02-14T07:12:36;6.10;;;4.13;;
12267;SDS011;6196;48.398;11.736;2024-02-14T07:15:03;5.23;;;3.47;;
12267;SDS011;6196;48.398;11.736;2024-02-14T07:17:32;5.17;;;3.73;;
12267;SDS011;6196;48.398;11.736;2024-02-14T07:19:59;4.90;;;3.77;;
12267;SDS011;6196;48.398;11.736;2024-02-14T07:22:28;4.97;;;3.70;;
12267;SDS011;6196;48.398;11.736;2024-02-14T07:24:56;8.17;;;4.40;;
12267;SDS011;6196;48.398;11.736;2024-02-14T07:27:23;5.93;;;4.40;;
12267;SDS011;6196;48.398;11.736;2024-02-14T07:29:50;4.13;;;3.17;;
12267;SDS011;6196;48.398;11.736;2024-02-14T07:32:18;4.27;;;3.80;;
12267;SDS011;6196;48.398;11.736;2024-02-14T07:34:45;4.23;;;3.73;;
12267;SDS011;6196;48.398;11.736;2024-02-14T07:37:12;4.13;;;3.57;;
12267;SDS011;6196;48.398;11.736;2024-02-14T07:39:41;4.83;;;3.60;;
12267;SDS011;6196;48.398;11.736;2024-02-14T07:42:08;6.47;;;3.70;;
12267;SDS011;6196;48.398;11.736;2024-02-14T07:44:35;4.50;;;3.60;;
12267;SDS011;6196;48.398;11.736;2024-02-14T07:47:03;5.77;;;3.60;;
12267;SDS011;6196;48.398;11.736;2024-02-14T07:49:32;5.43;;;2.90;;
12267;SDS011;6196;48.398;11.736;2024-02-14T07:52:00;4.50;;;3.47;;
12267;SDS011;6196;48.398;11.736;2024-02-14T07:54:27;4.40;;;3.10;;
12267;SDS011;6196;48.398;11.736;2024-02-14T07:56:54;5.70;;;2.90;;
12267;SDS011;6196;48.398;11.736;2024-02-14T07:59:21;5.10;;;3.37;;
12267;SDS011;6196;48.398;11.736;2024-02-14T08:01:47;3.30;;;3.00;;
12267;SDS011;6196;48.398;11.736;2024-02-14T08:04:14;5.53;;;2.50;;
12267;SDS011;6196;48.398;11.736;2024-02-14T08:06:44;2.53;;;2.30;;
12267;SDS011;6196;48.398;11.736;2024-02-14T08:09:12;5.23;;;2.70;;
12267;SDS011;6196;48.398;11.736;2024-02-14T08:11:39;3.70;;;2.70;;
12267;SDS011;6196;48.398;11.736;2024-02-14T08:14:07;2.60;;;2.40;;
12267;SDS011;6196;48.398;11.736;2024-02-14T08:16:34;6.60;;;2.60;;
12267;SDS011;6196;48.398;11.736;2024-02-14T08:19:02;3.07;;;2.50;;
12267;SDS011;6196;48.398;11.736;2024-02-14T08:21:29;3.40;;;2.47;;
12267;SDS011;6196;48.398;11.736;2024-02-14T08:23:58;3.63;;;2.47;;
12267;SDS011;6196;48.398;11.736;2024-02-14T08:26:27;3.90;;;2.50;;
12267;SDS011;6196;48.398;11.736;2024-02-14T08:28:55;2.93;;;2.60;;
12267;SDS011;6196;48.398;11.736;2024-02-14T08:31:22;4.53;;;2.80;;
12267;SDS011;6196;48.398;11.736;2024-02-14T08:33:49;3.50;;;2.53;;
12267;SDS011;6196;48.398;11.736;2024-02-14T08:36:17;3.70;;;3.30;;
12267;SDS011;6196;48.398;11.736;2024-02-14T08:38:46;3.27;;;2.30;;
12267;SDS011;6196;48.398;11.736;2024-02-14T08:41:14;3.03;;;2.50;;
12267;SDS011;6196;48.398;11.736;2024-02-14T08:43:41;3.53;;;2.80;;
12267;SDS011;6196;48.398;11.736;2024-02-14T08:46:12;5.40;;;3.13;;
12267;SDS011;6196;48.398;11.736;2024-02-14T08:48:40;3.57;;;2.60;;
12267;SDS011;6196;48.398;11.736;2024-02-14T08:51:13;3.30;;;2.77;;
12267;SDS011;6196;48.398;11.736;2024-02-14T08:53:40;3.93;;;2.80;;
12267;SDS011;6196;48.398;11.736;2024-02-14T08:56:08;3.13;;;2.47;;
12267;SDS011;6196;48.398;11.736;2024-02-14T08:58:35;4.07;;;2.47;;
12267;SDS011;6196;48.398;11.736;2024-02-14T09:01:02;2.87;;;2.40;;
12267;SDS011;6196;48.398;11.736;2024-02-14T09:03:40;3.83;;;2.50;;
12267;SDS011;6196;48.398;11.736;2024-02-14T09:06:16;3.30;;;2.47;;
12267;SDS011;6196;48.398;11.736;2024-02-14T09:08:48;4.83;;;2.63;;
12267;SDS011;6196;48.398;11.736;2024-02-14T09:11:18;2.63;;;2.40;;
12267;SDS011;6196;48.398;11.736;2024-02-14T09:13:46;5.67;;;2.30;;
12267;SDS011;6196;48.398;11.736;2024-02-14T09:16:15;4.03;;;2.50;;
12267;SDS011;6196;48.398;11.736;2024-02-14T09:18:44;3.73;;;2.70;;
12267;SDS011;6196;48.398;11.736;2024-02-14T09:21:12;2.93;;;2.30;;
12267;SDS011;6196;48.398;11.736;2024-02-14T09:23:44;5.17;;;2.50;;
12267;SDS011;6196;48.398;11.736;2024-02-14T09:26:11;4.53;;;2.40;;
12267;SDS011;6196;48.398;11.736;2024-02-14T09:28:42;3.03;;;2.17;;
12267;SDS011;6196;48.398;11.736;2024-02-14T09:31:09;4.67;;;2.33;;
12267;SDS011;6196;48.398;11.736;2024-02-14T09:33:38;4.47;;;2.60;;
12267;SDS011;6196;48.398;11.736;2024-02-14T09:36:06;3.20;;;2.70;;
12267;SDS011;6196;48.398;11.736;2024-02-14T09:38:34;3.30;;;2.27;;
12267;SDS011;6196;48.398;11.736;2024-02-14T09:41:11;3.43;;;2.10;;
12267;SDS011;6196;48.398;11.736;2024-02-14T09:43:48;4.60;;;2.20;;
12267;SDS011;6196;48.398;11.736;2024-02-14T09:46:15;2.93;;;2.43;;
12267;SDS011;6196;48.398;11.736;2024-02-14T09:48:43;4.23;;;2.50;;
12267;SDS011;6196;48.398;11.736;2024-02-14T09:51:12;2.97;;;2.20;;
12267;SDS011;6196;48.398;11.736;2024-02-14T09:53:40;3.73;;;2.10;;
12267;SDS011;6196;48.398;11.736;2024-02-14T09:56:09;3.13;;;2.37;;
12267;SDS011;6196;48.398;11.736;2024-02-14T09:58:37;6.00;;;2.00;;
12267;SDS011;6196;48.398;11.736;2024-02-14T10:01:06;2.63;;;2.20;;
12267;SDS011;6196;48.398;11.736;2024-02-14T10:03:33;4.13;;;2.07;;
12267;SDS011;6196;48.398;11.736;2024-02-14T10:06:02;2.70;;;1.93;;
12267;SDS011;6196;48.398;11.736;2024-02-14T10:08:30;3.83;;;2.03;;
12267;SDS011;6196;48.398;11.736;2024-02-14T10:10:58;3.90;;;2.40;;
12267;SDS011;6196;48.398;11.736;2024-02-14T10:13:28;2.63;;;1.80;;
12267;SDS011;6196;48.398;11.736;2024-02-14T10:15:57;3.83;;;1.83;;
12267;SDS011;6196;48.398;11.736;2024-02-14T10:18:24;3.33;;;1.80;;
12267;SDS011;6196;48.398;11.736;2024-02-14T10:20:54;2.60;;;1.90;;
12267;SDS011;6196;48.398;11.736;2024-02-14T10:23:24;3.70;;;1.70;;
12267;SDS011;6196;48.398;11.736;2024-02-14T10:25:53;2.87;;;1.70;;
12267;SDS011;6196;48.398;11.736;2024-02-14T10:28:23;3.10;;;1.60;;
12267;SDS011;6196;48.398;11.736;2024-02-14T10:31:01;2.67;;;1.70;;
12267;SDS011;6196;48.398;11.736;2024-02-14T10:33:31;2.23;;;1.50;;
12267;SDS011;6196;48.398;11.736;2024-02-14T10:35:59;3.93;;;1.67;;
12267;SDS011;6196;48.398;11.736;2024-02-14T10:38:30;2.47;;;1.77;;
12267;SDS011;6196;48.398;11.736;2024-02-14T10:41:02;3.37;;;1.50;;
12267;SDS011;6196;48.398;11.736;2024-02-14T10:43:31;5.80;;;1.83;;
12267;SDS011;6196;48.398;11.736;2024-02-14T10:46:00;3.30;;;1.67;;
12267;SDS011;6196;48.398;11.736;2024-02-14T10:48:32;1.60;;;1.50;;
12267;SDS011;6196;48.398;11.736;2024-02-14T10:51:05;2.17;;;1.50;;
12267;SDS011;6196;48.398;11.736;2024-02-14T10:53:34;2.13;;;1.10;;
12267;SDS011;6196;48.398;11.736;2024-02-14T10:56:08;1.63;;;1.20;;
12267;SDS011;6196;48.398;11.736;2024-02-14T10:58:36;1.80;;;1.20;;
12267;SDS011;6196;48.398;11.736;2024-02-14T11:01:03;2.40;;;1.30;;
12267;SDS011;6196;48.398;11.736;2024-02-14T11:03:33;2.10;;;1.10;;
12267;SDS011;6196;48.398;11.736;2024-02-14T11:06:02;1.70;;;1.10;;
12267;SDS011;6196;48.398;11.736;2024-02-14T11:08:31;1.90;;;1.00;;
12267;SDS011;6196;48.398;11.736;2024-02-14T11:10:59;1.87;;;1.13;;
12267;SDS011;6196;48.398;11.736;2024-02-14T11:13:30;1.90;;;1.13;;
12267;SDS011;6196;48.398;11.736;2024-02-14T11:16:04;2.43;;;1.30;;
12267;SDS011;6196;48.398;11.736;2024-02-14T11:18:35;2.37;;;1.00;;
12267;SDS011;6196;48.398;11.736;2024-02-14T11:21:04;3.07;;;1.30;;
12267;SDS011;6196;48.398;11.736;2024-02-14T11:23:31;2.27;;;1.10;;
12267;SDS011;6196;48.398;11.736;2024-02-14T11:26:00;1.47;;;1.07;;
12267;SDS011;6196;48.398;11.736;2024-02-14T11:28:36;1.93;;;0.90;;
12267;SDS011;6196;48.398;11.736;2024-02-14T11:31:06;2.20;;;0.80;;
12267;SDS011;6196;48.398;11.736;2024-02-14T11:33:36;1.33;;;0.90;;
12267;SDS011;6196;48.398;11.736;2024-02-14T11:36:07;1.83;;;1.00;;
12267;SDS011;6196;48.398;11.736;2024-02-14T11:38:39;1.17;;;0.93;;
12267;SDS011;6196;48.398;11.736;2024-02-14T11:41:07;1.30;;;1.00;;
12267;SDS011;6196;48.398;11.736;2024-02-14T11:43:36;1.43;;;0.77;;
12267;SDS011;6196;48.398;11.736;2024-02-14T11:46:05;2.53;;;1.10;;
12267;SDS011;6196;48.398;11.736;2024-02-14T11:48:33;3.50;;;0.90;;
12267;SDS011;6196;48.398;11.736;2024-02-14T11:51:00;1.30;;;0.80;;
12267;SDS011;6196;48.398;11.736;2024-02-14T11:53:27;1.37;;;0.90;;
12267;SDS011;6196;48.398;11.736;2024-02-14T11:55:55;0.77;;;0.70;;
12267;SDS011;6196;48.398;11.736;2024-02-14T11:58:23;1.73;;;0.80;;
12267;SDS011;6196;48.398;11.736;2024-02-14T12:00:50;2.30;;;0.80;;
12267;SDS011;6196;48.398;11.736;2024-02-14T12:03:18;1.07;;;0.70;;
12267;SDS011;6196;48.398;11.736;2024-02-14T12:05:48;1.40;;;1.10;;
12267;SDS011;6196;48.398;11.736;2024-02-14T12:08:18;1.27;;;0.70;;
12267;SDS011;6196;48.398;11.736;2024-02-14T12:10:45;1.53;;;0.80;;
12267;SDS011;6196;48.398;11.736;2024-02-14T12:13:17;1.30;;;0.80;;
12267;SDS011;6196;48.398;11.736;2024-02-14T12:15:47;1.50;;;0.80;;
12267;SDS011;6196;48.398;11.736;2024-02-14T12:18:16;1.90;;;0.90;;
12267;SDS011;6196;48.398;11.736;2024-02-14T12:20:45;1.17;;;0.60;;
12267;SDS011;6196;48.398;11.736;2024-02-14T12:23:17;2.83;;;0.60;;
12267;SDS011;6196;48.398;11.736;2024-02-14T12:25:45;0.80;;;0.60;;
12267;SDS011;6196;48.398;11.736;2024-02-14T12:28:13;1.20;;;0.73;;
12267;SDS011;6196;48.398;11.736;2024-02-14T12:30:46;2.00;;;0.90;;
12267;SDS011;6196;48.398;11.736;2024-02-14T12:33:27;5.10;;;1.03;;
12267;SDS011;6196;48.398;11.736;2024-02-14T12:35:55;1.40;;;0.93;;
12267;SDS011;6196;48.398;11.736;2024-02-14T12:38:23;1.57;;;0.63;;
12267;SDS011;6196;48.398;11.736;2024-02-14T12:40:51;0.97;;;0.60;;
12267;SDS011;6196;48.398;11.736;2024-02-14T12:43:21;1.13;;;0.70;;
12267;SDS011;6196;48.398;11.736;2024-02-14T12:45:48;1.00;;;0.60;;
12267;SDS011;6196;48.398;11.736;2024-02-14T12:48:21;1.80;;;0.63;;
12267;SDS011;6196;48.398;11.736;2024-02-14T12:50:54;1.43;;;0.60;;
12267;SDS011;6196;48.398;11.736;2024-02-14T12:53:22;1.17;;;0.60;;
12267;SDS011;6196;48.398;11.736;2024-02-14T12:55:50;1.37;;;0.63;;
12267;SDS011;6196;48.398;11.736;2024-02-14T12:58:17;0.87;;;0.73;;
12267;SDS011;6196;48.398;11.736;2024-02-14T13:00:44;1.43;;;0.70;;
12267;SDS011;6196;48.398;11.736;2024-02-14T13:03:11;0.90;;;0.70;;
12267;SDS011;6196;48.398;11.736;2024-02-14T13:05:43;0.83;;;0.80;;
12267;SDS011;6196;48.398;11.736;2024-02-14T13:08:11;0.60;;;0.60;;
12267;SDS011;6196;48.398;11.736;2024-02-14T13:10:38;1.77;;;0.70;;
12267;SDS011;6196;48.398;11.736;2024-02-14T13:13:05;3.43;;;0.93;;
12267;SDS011;6196;48.398;11.736;2024-02-14T13:15:32;1.17;;;0.70;;
12267;SDS011;6196;48.398;11.736;2024-02-14T13:17:59;1.03;;;0.67;;
12267;SDS011;6196;48.398;11.736;2024-02-14T13:20:27;1.43;;;0.50;;
12267;SDS011;6196;48.398;11.736;2024-02-14T13:22:54;0.80;;;0.80;;
12267;SDS011;6196;48.398;11.736;2024-02-14T13:25:21;1.57;;;0.70;;
12267;SDS011;6196;48.398;11.736;2024-02-14T13:27:48;1.03;;;0.60;;
12267;SDS011;6196;48.398;11.736;2024-02-14T13:30:15;1.13;;;0.60;;
12267;SDS011;6196;48.398;11.736;2024-02-14T13:32:42;1.63;;;0.70;;
12267;SDS011;6196;48.398;11.736;2024-02-14T13:35:09;0.80;;;0.73;;
12267;SDS011;6196;48.398;11.736;2024-02-14T13:37:39;1.50;;;1.00;;
12267;SDS011;6196;48.398;11.736;2024-02-14T13:40:06;1.13;;;0.70;;
12267;SDS011;6196;48.398;11.736;2024-02-14T13:42:36;1.53;;;0.70;;
12267;SDS011;6196;48.398;11.736;2024-02-14T13:45:04;2.43;;;0.97;;
12267;SDS011;6196;48.398;11.736;2024-02-14T13:47:36;0.60;;;0.50;;
12267;SDS011;6196;48.398;11.736;2024-02-14T13:50:07;1.33;;;0.90;;
12267;SDS011;6196;48.398;11.736;2024-02-14T13:52:35;0.73;;;0.57;;
12267;SDS011;6196;48.398;11.736;2024-02-14T13:55:03;0.70;;;0.70;;
12267;SDS011;6196;48.398;11.736;2024-02-14T13:57:37;0.80;;;0.77;;
12267;SDS011;6196;48.398;11.736;2024-02-14T14:00:06;1.93;;;0.80;;
12267;SDS011;6196;48.398;11.736;2024-02-14T14:02:38;1.70;;;0.80;;
12267;SDS011;6196;48.398;11.736;2024-02-14T14:05:09;1.13;;;1.00;;
12267;SDS011;6196;48.398;11.736;2024-02-14T14:07:41;1.77;;;0.90;;
12267;SDS011;6196;48.398;11.736;2024-02-14T14:10:22;1.60;;;1.03;;
12267;SDS011;6196;48.398;11.736;2024-02-14T14:12:52;1.30;;;0.90;;
12267;SDS011;6196;48.398;11.736;2024-02-14T14:15:18;1.50;;;0.90;;
12267;SDS011;6196;48.398;11.736;2024-02-14T14:17:46;0.83;;;0.70;;
12267;SDS011;6196;48.398;11.736;2024-02-14T14:20:13;0.93;;;0.77;;
12267;SDS011;6196;48.398;11.736;2024-02-14T14:22:41;0.70;;;0.70;;
12267;SDS011;6196;48.398;11.736;2024-02-14T14:25:07;0.80;;;0.70;;
12267;SDS011;6196;48.398;11.736;2024-02-14T14:27:35;1.33;;;0.60;;
12267;SDS011;6196;48.398;11.736;2024-02-14T14:30:02;1.00;;;0.80;;
12267;SDS011;6196;48.398;11.736;2024-02-14T14:32:30;0.70;;;0.63;;
12267;SDS011;6196;48.398;11.736;2024-02-14T14:34:57;1.20;;;0.70;;
12267;SDS011;6196;48.398;11.736;2024-02-14T14:37:24;1.30;;;0.87;;
12267;SDS011;6196;48.398;11.736;2024-02-14T14:39:51;1.00;;;0.77;;
12267;SDS011;6196;48.398;11.736;2024-02-14T14:42:18;1.37;;;0.70;;
12267;SDS011;6196;48.398;11.736;2024-02-14T14:44:45;1.40;;;0.90;;
12267;SDS011;6196;48.398;11.736;2024-02-14T14:47:12;1.00;;;0.60;;
12267;SDS011;6196;48.398;11.736;2024-02-14T14:49:39;1.20;;;0.70;;
12267;SDS011;6196;48.398;11.736;2024-02-14T14:52:07;1.67;;;0.77;;
12267;SDS011;6196;48.398;11.736;2024-02-14T14:54:34;1.33;;;0.80;;